createdAt,value
2023-05-21T00:02:55.790Z,14.85
2023-05-21T00:05:57.650Z,14.57
2023-05-21T00:08:59.363Z,14.30
2023-05-21T00:12:01.185Z,16.25
2023-05-21T00:15:03.074Z,15.07
2023-05-21T00:18:05.385Z,14.93
2023-05-21T00:21:07.574Z,14.60
2023-05-21T00:24:09.198Z,14.90
2023-05-21T00:27:11.153Z,14.10
2023-05-21T00:30:12.804Z,14.70
2023-05-21T00:33:14.677Z,14.90
2023-05-21T00:36:16.393Z,13.38
2023-05-21T00:39:18.075Z,14.23
2023-05-21T00:42:19.706Z,14.55
2023-05-21T00:45:23.904Z,14.65
2023-05-21T00:48:26.172Z,13.20
2023-05-21T00:51:30.213Z,13.30
2023-05-21T00:54:32.014Z,14.20
2023-05-21T00:57:34.707Z,14.15
2023-05-21T01:00:37.528Z,13.60
2023-05-21T01:03:39.353Z,13.68
2023-05-21T01:06:42.530Z,14.13
2023-05-21T01:09:44.836Z,13.52
2023-05-21T01:12:47.287Z,12.20
2023-05-21T01:15:50.440Z,12.50
2023-05-21T01:18:53.988Z,11.98
2023-05-21T01:22:07.232Z,12.13
2023-05-21T01:25:09.790Z,12.48
2023-05-21T01:28:11.763Z,11.68
2023-05-21T01:31:36.762Z,12.15
2023-05-21T01:34:53.840Z,11.27
2023-05-21T01:38:15.123Z,11.75
2023-05-21T01:41:18.519Z,12.02
2023-05-21T01:44:20.881Z,10.93
2023-05-21T01:47:24.887Z,10.15
2023-05-21T01:50:27.126Z,11.13
2023-05-21T01:53:28.882Z,11.27
2023-05-21T01:56:33.631Z,10.02
2023-05-21T01:59:36.631Z,10.32
2023-05-21T02:02:38.351Z,9.70
2023-05-21T02:05:40.010Z,10.13
2023-05-21T02:08:41.604Z,9.48
2023-05-21T02:11:43.284Z,9.27
2023-05-21T02:14:46.610Z,10.20
2023-05-21T02:17:51.216Z,9.27
2023-05-21T02:20:52.896Z,9.10
2023-05-21T02:23:54.546Z,9.35
2023-05-21T02:26:56.234Z,9.77
2023-05-21T02:29:57.846Z,10.13
2023-05-21T02:32:59.469Z,9.40
2023-05-21T02:36:01.076Z,9.73
2023-05-21T02:39:02.900Z,10.32
2023-05-21T02:42:04.601Z,9.73
2023-05-21T02:45:11.639Z,9.63
2023-05-21T02:48:13.486Z,9.50
2023-05-21T02:51:15.096Z,9.43
2023-05-21T02:54:16.654Z,9.48
2023-05-21T02:57:18.352Z,9.52
2023-05-21T03:00:20.068Z,10.40
2023-05-21T03:03:21.724Z,9.43
2023-05-21T03:06:23.425Z,10.05
2023-05-21T03:09:25.034Z,9.82
2023-05-21T03:12:26.646Z,9.65
2023-05-21T03:15:33.134Z,9.80
2023-05-21T03:18:34.719Z,9.45
2023-05-21T03:21:36.602Z,9.65
2023-05-21T03:24:39.182Z,9.20
2023-05-21T03:27:40.978Z,10.40
2023-05-21T03:30:46.223Z,9.57
2023-05-21T03:33:47.991Z,11.00
2023-05-21T03:36:50.119Z,11.13
2023-05-21T03:39:51.850Z,9.88
2023-05-21T03:42:53.552Z,10.82
2023-05-21T03:45:55.911Z,11.55
2023-05-21T03:48:58.209Z,10.65
2023-05-21T03:51:59.873Z,10.40
2023-05-21T03:55:01.629Z,9.38
2023-05-21T03:58:03.448Z,11.15
2023-05-21T04:01:05.869Z,9.90
2023-05-21T04:04:07.574Z,9.98
2023-05-21T04:07:14.268Z,11.05
2023-05-21T04:10:16.022Z,11.15
2023-05-21T04:13:17.636Z,10.38
2023-05-21T04:16:19.570Z,10.98
2023-05-21T04:19:21.356Z,10.73
2023-05-21T04:22:23.332Z,10.75
2023-05-21T04:25:27.229Z,10.82
2023-05-21T04:28:29.004Z,10.77
2023-05-21T04:31:32.279Z,10.98
2023-05-21T04:34:34.003Z,11.05
2023-05-21T04:37:36.171Z,11.52
2023-05-21T04:40:37.888Z,11.38
2023-05-21T04:43:43.887Z,11.82
2023-05-21T04:46:46.019Z,11.10
2023-05-21T04:49:47.796Z,11.30
2023-05-21T04:52:49.386Z,12.05
2023-05-21T04:55:51.049Z,11.70
2023-05-21T04:58:54.205Z,11.52
2023-05-21T05:01:55.954Z,11.00
2023-05-21T05:04:57.558Z,10.23
2023-05-21T05:07:59.518Z,11.10
2023-05-21T05:11:01.162Z,10.90
2023-05-21T05:14:02.737Z,10.93
2023-05-21T05:17:05.629Z,11.55
2023-05-21T05:20:08.191Z,11.70
2023-05-21T05:23:09.850Z,11.25
2023-05-21T05:26:11.480Z,11.70
2023-05-21T05:29:13.090Z,11.20
2023-05-21T05:32:14.769Z,11.93
2023-05-21T05:35:16.338Z,10.48
2023-05-21T05:38:18.018Z,11.25
2023-05-21T05:41:19.654Z,11.10
2023-05-21T05:44:21.387Z,12.05
2023-05-21T05:47:23.031Z,11.32
2023-05-21T05:50:24.681Z,11.00
2023-05-21T05:53:26.307Z,11.38
2023-05-21T05:56:28.046Z,10.93
2023-05-21T05:59:29.653Z,11.80
2023-05-21T06:02:31.328Z,11.73
2023-05-21T06:05:33.081Z,11.05
2023-05-21T06:08:37.346Z,10.52
2023-05-21T06:11:39.746Z,12.43
2023-05-21T06:14:43.787Z,11.95
2023-05-21T06:17:46.766Z,11.40
2023-05-21T06:20:48.444Z,11.70
2023-05-21T06:23:50.086Z,12.23
2023-05-21T06:26:51.733Z,12.13
2023-05-21T06:29:53.359Z,12.82
2023-05-21T06:32:55.048Z,12.80
2023-05-21T06:35:56.742Z,13.32
2023-05-21T06:38:58.454Z,13.43
2023-05-21T06:42:00.077Z,13.27
2023-05-21T06:45:01.989Z,13.15
2023-05-21T06:48:03.901Z,13.05
2023-05-21T06:51:05.611Z,13.57
2023-05-21T06:54:07.242Z,13.60
2023-05-21T06:57:08.875Z,12.57
2023-05-21T07:00:12.156Z,13.13
2023-05-21T07:03:14.039Z,13.93
2023-05-21T07:06:16.711Z,14.48
2023-05-21T07:09:18.836Z,14.50
2023-05-21T07:12:20.510Z,14.57
2023-05-21T07:15:22.150Z,15.05
2023-05-21T07:18:23.973Z,13.63
2023-05-21T07:21:25.583Z,14.40
2023-05-21T07:24:27.918Z,14.23
2023-05-21T07:27:29.550Z,14.45
2023-05-21T07:30:31.113Z,13.75
2023-05-21T07:33:34.110Z,14.48
2023-05-21T07:36:35.885Z,14.63
2023-05-21T07:39:37.750Z,13.68
2023-05-21T07:42:39.366Z,14.73
2023-05-21T07:45:41.239Z,15.27
2023-05-21T07:48:47.521Z,14.40
2023-05-21T07:51:49.592Z,15.10
2023-05-21T07:54:51.223Z,15.45
2023-05-21T07:57:52.855Z,14.40
2023-05-21T08:00:54.517Z,14.38
2023-05-21T08:03:56.494Z,14.77
2023-05-21T08:06:58.215Z,14.98
2023-05-21T08:10:01.076Z,15.63
2023-05-21T08:13:04.209Z,15.52
2023-05-21T08:16:06.129Z,15.43
2023-05-21T08:19:07.981Z,15.93
2023-05-21T08:22:10.046Z,15.43
2023-05-21T08:25:11.669Z,16.70
2023-05-21T08:28:13.358Z,15.38
2023-05-21T08:31:15.081Z,16.80
2023-05-21T08:34:18.354Z,16.52
2023-05-21T08:37:21.700Z,16.40
2023-05-21T08:40:25.219Z,16.13
2023-05-21T08:43:30.839Z,17.15
2023-05-21T08:46:36.451Z,16.40
2023-05-21T08:49:38.116Z,16.55
2023-05-21T08:52:39.955Z,17.02
2023-05-21T08:55:43.383Z,16.38
2023-05-21T08:58:48.055Z,17.08
2023-05-21T09:01:50.805Z,16.88
2023-05-21T09:04:58.726Z,15.32
2023-05-21T09:08:09.209Z,17.08
2023-05-21T09:14:13.367Z,16.52
2023-05-21T09:17:15.326Z,15.50
2023-05-21T09:20:17.515Z,15.65
2023-05-21T09:23:19.674Z,18.15
2023-05-21T09:26:22.738Z,17.17
2023-05-21T09:29:26.000Z,15.02
2023-05-21T09:32:27.682Z,15.60
2023-05-21T09:35:29.461Z,17.75
2023-05-21T09:38:34.025Z,18.65
2023-05-21T09:41:36.648Z,16.00
2023-05-21T09:44:38.282Z,16.88
2023-05-21T09:47:44.005Z,17.60
2023-05-21T09:50:45.781Z,17.55
2023-05-21T09:53:53.035Z,17.25
2023-05-21T09:56:54.627Z,17.20
2023-05-21T09:59:57.748Z,17.23
2023-05-21T10:03:05.922Z,18.38
2023-05-21T10:06:09.377Z,17.77
2023-05-21T10:09:11.848Z,16.77
2023-05-21T10:12:14.439Z,17.23
2023-05-21T10:15:22.206Z,18.55
2023-05-21T10:18:24.627Z,17.30
2023-05-21T10:21:27.545Z,17.92
2023-05-21T10:24:29.427Z,18.30
2023-05-21T10:27:32.720Z,18.63
2023-05-21T10:30:36.118Z,16.58
2023-05-21T10:33:38.894Z,17.30
2023-05-21T10:36:41.626Z,17.73
2023-05-21T10:39:45.770Z,18.48
2023-05-21T10:43:18.190Z,19.02
2023-05-21T10:46:34.741Z,17.73
2023-05-21T10:50:02.477Z,19.65
2023-05-21T10:53:28.347Z,17.83
2023-05-21T10:56:41.605Z,18.98
2023-05-21T10:59:46.619Z,18.73
2023-05-21T11:02:49.409Z,18.15
2023-05-21T11:05:54.210Z,18.63
2023-05-21T11:08:56.053Z,18.58
2023-05-21T11:11:58.840Z,17.65
2023-05-21T11:15:00.559Z,18.52
2023-05-21T11:18:02.349Z,18.00
2023-05-21T11:21:15.855Z,17.67
2023-05-21T11:24:20.646Z,18.77
2023-05-21T11:27:35.160Z,17.85
2023-05-21T11:30:38.353Z,18.40
2023-05-21T11:33:41.217Z,17.85
2023-05-21T11:36:47.402Z,18.05
2023-05-21T11:39:50.696Z,18.63
2023-05-21T11:42:54.835Z,19.05
2023-05-21T11:45:57.003Z,18.65
2023-05-21T11:48:59.340Z,17.35
2023-05-21T11:52:02.094Z,18.13
2023-05-21T11:55:04.877Z,17.20
2023-05-21T11:58:09.469Z,16.88
2023-05-21T12:01:22.388Z,17.35
2023-05-21T12:04:24.168Z,16.10
2023-05-21T12:07:31.299Z,18.20
2023-05-21T12:10:35.733Z,19.35
2023-05-21T12:13:39.149Z,18.58
2023-05-21T12:16:41.175Z,18.02
2023-05-21T12:19:43.938Z,17.00
2023-05-21T12:22:45.593Z,18.17
2023-05-21T12:25:47.321Z,15.38
2023-05-21T12:28:49.082Z,17.67
2023-05-21T12:31:50.974Z,17.70
2023-05-21T12:34:54.528Z,18.48
2023-05-21T12:37:56.612Z,16.45
2023-05-21T12:41:04.845Z,17.42
2023-05-21T12:44:08.601Z,18.95
2023-05-21T12:47:11.404Z,17.20
2023-05-21T12:50:13.785Z,17.77
2023-05-21T12:53:15.588Z,17.50
2023-05-21T12:56:17.253Z,17.20
2023-05-21T12:59:18.930Z,17.88
2023-05-21T13:02:33.005Z,17.90
2023-05-21T13:05:35.372Z,15.98
2023-05-21T13:08:37.650Z,18.02
2023-05-21T13:11:39.311Z,16.70
2023-05-21T13:14:40.975Z,17.27
2023-05-21T13:17:42.610Z,18.58
2023-05-21T13:20:44.255Z,17.55
2023-05-21T13:23:45.849Z,17.05
2023-05-21T13:26:47.479Z,17.20
2023-05-21T13:29:49.168Z,17.63
2023-05-21T13:32:51.996Z,17.45
2023-05-21T13:35:53.979Z,17.30
2023-05-21T13:38:56.351Z,15.82
2023-05-21T13:41:59.114Z,15.98
2023-05-21T13:45:01.199Z,16.65
2023-05-21T13:48:02.929Z,17.25
2023-05-21T13:51:04.650Z,16.08
2023-05-21T13:54:06.323Z,15.85
2023-05-21T13:57:08.014Z,15.43
2023-05-21T14:00:12.448Z,14.73
2023-05-21T14:03:14.081Z,15.73
2023-05-21T14:06:15.734Z,15.68
2023-05-21T14:09:17.355Z,15.13
2023-05-21T14:12:19.033Z,14.60
2023-05-21T14:15:21.279Z,14.30
2023-05-21T14:18:22.946Z,16.20
2023-05-21T14:21:25.569Z,14.18
2023-05-21T14:24:27.200Z,15.45
2023-05-21T14:27:28.818Z,16.73
2023-05-21T14:30:31.478Z,15.00
2023-05-21T14:33:34.040Z,14.30
2023-05-21T14:36:36.299Z,14.55
2023-05-21T14:39:37.914Z,14.77
2023-05-21T14:42:39.496Z,15.52
2023-05-21T14:45:41.263Z,14.43
2023-05-21T14:48:42.932Z,13.68
2023-05-21T14:51:44.904Z,13.48
2023-05-21T14:54:46.548Z,14.63
2023-05-21T14:57:48.334Z,14.45
2023-05-21T15:00:49.946Z,14.70
2023-05-21T15:03:51.703Z,14.95
2023-05-21T15:06:53.460Z,13.65
2023-05-21T15:09:55.384Z,13.75
2023-05-21T15:12:56.981Z,14.60
2023-05-21T15:15:58.637Z,14.00
2023-05-21T15:19:00.270Z,12.77
2023-05-21T15:22:02.664Z,12.52
2023-05-21T15:25:04.754Z,14.60
2023-05-21T15:28:07.239Z,14.98
2023-05-21T15:31:08.906Z,14.88
2023-05-21T15:34:10.583Z,13.57
2023-05-21T15:37:15.165Z,14.75
2023-05-21T15:40:16.838Z,14.70
2023-05-21T15:43:18.468Z,14.20
2023-05-21T15:46:20.147Z,13.32
2023-05-21T15:49:21.867Z,14.30
2023-05-21T15:52:23.424Z,15.27
2023-05-21T15:55:25.041Z,13.68
2023-05-21T15:58:26.653Z,15.88
2023-05-21T16:01:28.518Z,13.88
2023-05-21T16:04:32.839Z,14.52
2023-05-21T16:07:36.926Z,14.23
2023-05-21T16:10:39.868Z,15.32
2023-05-21T16:13:41.625Z,15.30
2023-05-21T16:16:43.246Z,14.70
2023-05-21T16:19:45.019Z,15.00
2023-05-21T16:22:46.590Z,15.65
2023-05-21T16:25:48.227Z,15.73
2023-05-21T16:28:49.867Z,15.73
2023-05-21T16:31:51.562Z,15.57
2023-05-21T16:34:53.230Z,15.82
2023-05-21T16:37:54.873Z,15.32
2023-05-21T16:40:56.653Z,15.40
2023-05-21T16:43:58.252Z,16.33
2023-05-21T16:47:00.389Z,15.98
2023-05-21T16:50:02.187Z,16.42
2023-05-21T16:53:05.973Z,15.88
2023-05-21T16:56:07.657Z,16.10
2023-05-21T16:59:09.313Z,16.40
2023-05-21T17:02:12.352Z,16.48
2023-05-21T17:05:14.022Z,16.85
2023-05-21T17:08:15.697Z,15.82
2023-05-21T17:11:17.671Z,16.85
2023-05-21T17:14:32.616Z,16.95
2023-05-21T17:17:35.294Z,16.27
2023-05-21T17:20:37.164Z,16.65
2023-05-21T17:23:38.782Z,17.33
2023-05-21T17:26:40.478Z,16.70
2023-05-21T17:29:42.509Z,18.85
2023-05-21T17:32:44.197Z,17.83
2023-05-21T17:35:46.225Z,17.17
2023-05-21T17:38:47.848Z,16.98
2023-05-21T17:41:49.890Z,17.67
2023-05-21T17:44:51.459Z,17.75
2023-05-21T17:47:53.155Z,18.17
2023-05-21T17:50:55.693Z,16.85
2023-05-21T17:53:57.334Z,17.20
2023-05-21T17:56:58.958Z,17.25
2023-05-21T18:00:00.598Z,17.23
2023-05-21T18:03:02.287Z,17.42
2023-05-21T18:06:04.184Z,17.95
2023-05-21T18:09:07.795Z,17.98
2023-05-21T18:12:09.647Z,17.30
2023-05-21T18:15:11.415Z,17.17
2023-05-21T18:18:19.751Z,17.70
2023-05-21T18:21:23.440Z,17.80
2023-05-21T18:24:25.560Z,17.27
2023-05-21T18:27:27.196Z,17.60
2023-05-21T18:30:28.792Z,17.58
2023-05-21T18:33:31.278Z,17.02
2023-05-21T18:36:38.517Z,17.15
2023-05-21T18:39:40.270Z,16.92
2023-05-21T18:42:41.889Z,18.50
2023-05-21T18:45:44.164Z,17.90
2023-05-21T18:48:46.271Z,18.67
2023-05-21T18:51:47.916Z,18.20
2023-05-21T18:54:49.521Z,17.05
2023-05-21T18:57:51.166Z,18.17
2023-05-21T19:00:52.849Z,18.80
2023-05-21T19:03:54.514Z,21.70
2023-05-21T19:06:56.122Z,23.30
2023-05-21T19:10:00.478Z,18.80
2023-05-21T19:13:03.401Z,18.42
2023-05-21T19:16:10.925Z,18.88
2023-05-21T19:19:12.812Z,22.23
2023-05-21T19:22:14.950Z,18.63
2023-05-21T19:25:16.782Z,18.45
2023-05-21T19:28:18.710Z,19.55
2023-05-21T19:31:22.096Z,20.20
2023-05-21T19:34:23.874Z,28.70
2023-05-21T19:37:26.056Z,24.65
2023-05-21T19:40:27.664Z,18.55
2023-05-21T19:43:29.255Z,17.92
2023-05-21T19:46:31.313Z,21.40
2023-05-21T19:49:32.980Z,22.13
2023-05-21T19:52:34.615Z,22.27
2023-05-21T19:55:37.436Z,22.00
2023-05-21T19:58:39.106Z,20.77
2023-05-21T20:01:43.146Z,21.15
2023-05-21T20:04:44.800Z,21.55
2023-05-21T20:07:46.827Z,21.27
2023-05-21T20:10:51.328Z,21.73
2023-05-21T20:13:53.608Z,20.98
2023-05-21T20:16:58.287Z,25.10
2023-05-21T20:20:01.273Z,22.90
2023-05-21T20:23:03.263Z,20.70
2023-05-21T20:26:04.902Z,21.63
2023-05-21T20:29:07.913Z,22.55
2023-05-21T20:32:09.560Z,22.13
2023-05-21T20:35:11.189Z,35.22
2023-05-21T20:38:13.133Z,24.33
2023-05-21T20:41:14.778Z,23.50
2023-05-21T20:44:17.393Z,24.30
2023-05-21T20:47:20.180Z,30.95
2023-05-21T20:50:25.802Z,24.15
2023-05-21T20:53:27.545Z,23.38
2023-05-21T20:56:41.473Z,23.85
2023-05-21T20:59:44.064Z,22.42
2023-05-21T21:02:45.975Z,21.45
2023-05-21T21:05:47.680Z,22.90
2023-05-21T21:08:50.103Z,24.50
2023-05-21T21:11:51.725Z,22.95
2023-05-21T21:14:53.662Z,24.65
2023-05-21T21:17:55.299Z,23.80
2023-05-21T21:20:57.156Z,24.05
2023-05-21T21:23:58.752Z,23.75
2023-05-21T21:27:01.404Z,21.92
2023-05-21T21:30:04.563Z,16.58
2023-05-21T21:33:09.834Z,15.50
2023-05-21T21:36:12.410Z,13.25
2023-05-21T21:39:14.078Z,12.77
2023-05-21T21:42:18.891Z,11.30
2023-05-21T21:45:20.592Z,12.60
2023-05-21T21:48:22.211Z,14.73
2023-05-21T21:51:23.952Z,16.67
2023-05-21T21:54:27.526Z,15.40
2023-05-21T21:57:29.865Z,15.70
2023-05-21T22:00:31.495Z,14.55
2023-05-21T22:03:34.317Z,15.02
2023-05-21T22:06:38.840Z,16.13
2023-05-21T22:09:40.544Z,17.83
2023-05-21T22:12:46.074Z,17.50
2023-05-21T22:15:51.387Z,17.05
2023-05-21T22:18:53.969Z,16.08
2023-05-21T22:21:55.677Z,16.38
2023-05-21T22:24:57.250Z,14.85
2023-05-21T22:27:59.038Z,15.65
2023-05-21T22:31:00.767Z,17.00
2023-05-21T22:34:02.640Z,14.80
2023-05-21T22:37:04.431Z,14.25
2023-05-21T22:40:06.911Z,15.02
2023-05-21T22:43:08.810Z,14.02
2023-05-21T22:46:10.657Z,14.48
2023-05-21T22:49:12.419Z,14.77
2023-05-21T22:52:20.071Z,14.55
2023-05-21T22:55:21.902Z,13.52
2023-05-21T22:58:24.004Z,13.20
2023-05-21T23:01:25.737Z,13.50
2023-05-21T23:04:43.277Z,14.75
2023-05-21T23:07:45.804Z,14.73
2023-05-21T23:10:47.453Z,15.85
2023-05-21T23:13:49.079Z,15.10
2023-05-21T23:16:50.665Z,15.00
2023-05-21T23:19:52.978Z,14.77
2023-05-21T23:22:57.330Z,15.07
2023-05-21T23:25:59.211Z,14.90
2023-05-21T23:29:01.760Z,15.52
2023-05-21T23:32:05.125Z,15.48
2023-05-21T23:35:08.083Z,15.02
2023-05-21T23:38:09.755Z,14.95
2023-05-21T23:41:11.472Z,15.38
2023-05-21T23:44:13.091Z,15.40
2023-05-21T23:47:14.678Z,16.33
2023-05-21T23:50:16.534Z,15.13
2023-05-21T23:53:18.218Z,16.40
2023-05-21T23:56:20.116Z,16.58
2023-05-21T23:59:21.733Z,16.05
